Time;durP1;ratioP1;P1;durP2;ratioP2;P2;SDS_P1;SDS_P2;PMS_P1;PMS_P2;Temp;Humidity;BMP_temperature;BMP_pressure;BME280_temperature;BME280_humidity;BME280_pressure;Samples;Min_cycle;Max_cycle;Signal;HPM_P1;HPM_P2
2022/12/06 00:00:37;;;;;;;112.60;44.37;;;;;;;-141.97;100.00;47926.56;4972389;28;20200;-86
2022/12/06 00:03:02;;;;;;;132.00;49.93;;;;;;;-141.97;100.00;47901.59;4972522;28;20173;-85
2022/12/06 00:05:30;;;;;;;134.77;53.27;;;;;;;-141.97;100.00;47911.19;4972276;28;20649;-86
2022/12/06 00:07:56;;;;;;;119.27;48.53;;;;;;;-141.97;100.00;47893.91;4987469;28;20207;-85
2022/12/06 00:10:21;;;;;;;107.80;43.70;;;;;;;-141.97;100.00;47866.97;4972747;28;20176;-85
2022/12/06 00:12:46;;;;;;;112.13;43.80;;;;;;;-141.97;100.00;47909.28;4976045;28;20218;-85
2022/12/06 00:15:12;;;;;;;99.33;40.47;;;;;;;-141.97;100.00;47720.91;4975583;28;20168;-86
2022/12/06 00:17:37;;;;;;;98.37;40.30;;;;;;;-141.97;100.00;47903.50;4976075;28;20172;-85
2022/12/06 00:20:03;;;;;;;99.87;40.27;;;;;;;-141.97;100.00;47926.56;4975970;28;20203;-85
2022/12/06 00:22:28;;;;;;;89.87;38.37;;;;;;;-141.97;100.00;47926.56;4976399;28;20271;-85
2022/12/06 00:24:53;;;;;;;107.50;42.77;;;;;;;-141.97;100.00;47826.63;4991095;28;20180;-85
2022/12/06 00:27:19;;;;;;;92.40;39.73;;;;;;;-141.97;100.00;47976.56;4975870;28;20172;-85
2022/12/06 00:29:44;;;;;;;103.40;39.80;;;;;;;-141.97;100.00;47895.81;4975601;28;20204;-85
2022/12/06 00:32:09;;;;;;;95.77;39.73;;;;;;;-141.97;100.00;47811.25;4975605;28;20176;-86
2022/12/06 00:34:35;;;;;;;92.47;38.27;;;;;;;-141.97;100.00;47799.72;4975671;28;20168;-85
2022/12/06 00:37:00;;;;;;;96.90;37.73;;;;;;;-141.97;100.00;47822.78;4975914;28;20606;-85
2022/12/06 00:39:26;;;;;;;95.97;37.73;;;;;;;-141.97;100.00;47957.34;4976375;28;20195;-85
2022/12/06 00:41:54;;;;;;;105.77;39.73;;;;;;;-141.97;100.00;47882.38;4975466;28;20270;-85
2022/12/06 00:44:20;;;;;;;101.33;39.57;;;;;;;-141.97;100.00;47918.88;4975452;28;20168;-85
2022/12/06 00:46:45;;;;;;;99.90;37.53;;;;;;;-141.97;100.00;47907.34;4974185;28;20182;-85
2022/12/06 00:49:10;;;;;;;94.43;37.47;;;;;;;-141.97;100.00;47915.03;4976080;28;20174;-86
2022/12/06 00:51:36;;;;;;;97.07;38.53;;;;;;;-141.97;100.00;47901.59;4994626;28;20661;-86
2022/12/06 00:54:02;;;;;;;101.10;38.00;;;;;;;-141.97;100.00;47936.19;4995001;28;20171;-86
2022/12/06 00:56:28;;;;;;;86.03;36.73;;;;;;;-141.97;100.00;47920.81;4995049;28;20314;-85
2022/12/06 00:58:54;;;;;;;89.47;36.07;;;;;;;-141.97;100.00;47826.63;4994661;28;20731;-85
2022/12/06 01:01:22;;;;;;;89.60;36.60;;;;;;;-141.97;100.00;47899.66;4994188;28;20192;-86
2022/12/06 01:03:52;;;;;;;92.40;36.80;;;;;;;-141.97;100.00;47901.59;4994155;28;20174;-85
2022/12/06 01:06:21;;;;;;;93.33;36.93;;;;;;;-141.97;100.00;47845.84;4994099;28;20169;-85
2022/12/06 01:08:47;;;;;;;86.57;35.90;;;;;;;-141.97;100.00;47922.72;4994444;28;20191;-85
2022/12/06 01:11:14;;;;;;;95.07;34.67;;;;;;;-141.97;100.00;47874.69;4994792;28;20652;-85
2022/12/06 01:13:39;;;;;;;89.07;35.40;;;;;;;-141.97;100.00;47797.78;4993458;28;20176;-85
2022/12/06 01:16:05;;;;;;;77.97;32.90;;;;;;;-141.97;100.00;47901.59;4998204;28;20173;-85
2022/12/06 01:18:30;;;;;;;79.97;32.40;;;;;;;-141.97;100.00;47926.56;5003144;28;20251;-85
2022/12/06 01:20:55;;;;;;;76.90;32.67;;;;;;;-141.97;100.00;47888.13;4999306;28;20647;-84
2022/12/06 01:23:21;;;;;;;76.70;33.33;;;;;;;-141.97;100.00;47982.31;5018683;28;20155;-84
2022/12/06 01:25:50;;;;;;;77.50;33.60;;;;;;;-141.97;100.00;47811.25;5019139;28;20160;-85
2022/12/06 01:28:16;;;;;;;82.20;34.07;;;;;;;-141.97;100.00;47738.19;5018521;28;20180;-85
2022/12/06 01:30:41;;;;;;;85.67;34.63;;;;;;;-141.97;100.00;47963.09;5017749;28;20256;-85
2022/12/06 01:33:07;;;;;;;80.50;32.87;;;;;;;-141.97;100.00;47953.50;5018683;28;20163;-85
2022/12/06 01:35:32;;;;;;;82.10;34.47;;;;;;;-141.97;100.00;47866.97;5016367;28;20230;-85
2022/12/06 01:37:57;;;;;;;85.30;36.97;;;;;;;-141.97;100.00;47784.34;4995115;28;20199;-85
2022/12/06 01:40:23;;;;;;;82.47;35.47;;;;;;;-141.97;100.00;47968.88;4991995;28;20203;-85
2022/12/06 01:42:48;;;;;;;76.90;33.33;;;;;;;-141.97;100.00;47876.59;4994035;28;20164;-85
2022/12/06 01:45:14;;;;;;;90.03;40.03;;;;;;;-141.97;100.00;47732.44;4993544;28;20172;-85
2022/12/06 01:47:42;;;;;;;90.80;38.33;;;;;;;-141.97;100.00;47970.78;4993721;28;20164;-85
2022/12/06 01:50:18;;;;;;;86.03;36.43;;;;;;;-141.97;100.00;47903.50;4993948;28;20306;-85
2022/12/06 01:52:59;;;;;;;89.97;34.73;;;;;;;-141.97;100.00;47899.66;4995475;28;20178;-85
2022/12/06 01:55:29;;;;;;;89.67;35.97;;;;;;;-141.97;100.00;47909.28;4993649;28;20258;-85
2022/12/06 01:57:59;;;;;;;91.90;36.33;;;;;;;-141.97;100.00;47893.91;4993751;28;20175;-85
2022/12/06 02:00:24;;;;;;;88.67;35.53;;;;;;;-141.97;100.00;47916.97;4993270;28;20679;-85
2022/12/06 02:02:50;;;;;;;94.00;37.27;;;;;;;-141.97;100.00;47845.84;4992463;28;20178;-85
2022/12/06 02:05:16;;;;;;;95.10;41.13;;;;;;;-141.97;100.00;47911.19;4993585;28;20171;-86
2022/12/06 02:07:43;;;;;;;94.53;41.57;;;;;;;-141.97;100.00;47930.41;4975942;28;20175;-85
2022/12/06 02:10:09;;;;;;;95.63;40.70;;;;;;;-141.97;100.00;47880.44;4993694;28;20591;-85
2022/12/06 02:12:35;;;;;;;92.43;39.83;;;;;;;-141.97;100.00;47899.66;4993552;28;20652;-85
2022/12/06 02:15:01;;;;;;;89.17;37.83;;;;;;;-141.97;100.00;47842.00;4992943;28;20246;-85
2022/12/06 02:17:29;;;;;;;86.77;35.73;;;;;;;-141.97;100.00;47911.19;4992962;28;20262;-85
2022/12/06 02:20:02;;;;;;;82.33;34.13;;;;;;;-141.97;100.00;47913.13;4993024;28;20203;-85
2022/12/06 02:22:59;;;;;;;76.90;32.53;;;;;;;-141.97;100.00;47888.13;4976795;28;20691;-85
2022/12/06 02:26:02;;;;;;;79.77;32.47;;;;;;;-141.97;100.00;47907.34;4993335;28;20180;-85
2022/12/06 02:28:46;;;;;;;85.13;35.60;;;;;;;-141.97;100.00;47909.28;4913682;29;20273;-85
2022/12/06 02:31:18;;;;;;;77.27;31.13;;;;;;;-141.97;100.00;47926.56;4916006;29;20198;-85
2022/12/06 02:34:05;;;;;;;81.47;33.73;;;;;;;-141.97;100.00;47899.66;4897776;29;20575;-85
2022/12/06 02:36:50;;;;;;;79.93;33.13;;;;;;;-141.97;100.00;47949.66;4922248;29;20178;-85
2022/12/06 02:39:25;;;;;;;78.53;32.87;;;;;;;-141.97;100.00;47876.59;4933871;29;20287;-86
2022/12/06 02:42:19;;;;;;;79.93;32.27;;;;;;;-141.97;100.00;47905.44;4923995;29;20335;-85
2022/12/06 02:44:51;;;;;;;74.63;31.47;;;;;;;-141.97;100.00;47874.69;4914000;29;20186;-86
2022/12/06 02:47:22;;;;;;;76.93;30.73;;;;;;;-141.97;100.00;47861.22;4913531;29;20205;-85
2022/12/06 02:49:49;;;;;;;78.27;30.57;;;;;;;-141.97;100.00;47974.63;4913284;29;20782;-86
2022/12/06 02:52:18;;;;;;;74.40;30.53;;;;;;;-141.97;100.00;47890.06;4913679;29;20214;-85
2022/12/06 02:54:46;;;;;;;69.67;29.77;;;;;;;-141.97;100.00;47909.28;4914436;29;20261;-85
2022/12/06 02:57:12;;;;;;;71.33;29.60;;;;;;;-141.97;100.00;47926.56;4914030;29;20260;-85
2022/12/06 02:59:38;;;;;;;75.37;30.30;;;;;;;-141.97;100.00;47795.88;4913402;29;20330;-85
2022/12/06 03:02:09;;;;;;;75.10;30.30;;;;;;;-141.97;100.00;47845.84;4913326;29;20225;-85
2022/12/06 03:04:48;;;;;;;77.77;31.03;;;;;;;-141.97;100.00;47911.19;4924310;28;20194;-85
2022/12/06 03:07:28;;;;;;;78.80;31.67;;;;;;;-141.97;100.00;47865.06;4974935;28;20186;-85
2022/12/06 03:10:02;;;;;;;84.03;32.07;;;;;;;-141.97;100.00;47930.41;4992352;28;20176;-85
2022/12/06 03:13:05;;;;;;;83.67;32.57;;;;;;;-141.97;100.00;47936.19;4992300;28;20569;-85
2022/12/06 03:15:57;;;;;;;87.80;34.20;;;;;;;-141.97;100.00;47874.69;4991869;28;20175;-86
2022/12/06 03:18:35;;;;;;;96.80;34.10;;;;;;;-141.97;100.00;47884.28;4992187;28;20185;-85
2022/12/06 03:21:17;;;;;;;92.13;35.23;;;;;;;-141.97;100.00;47895.81;4991929;28;20159;-85
2022/12/06 03:23:45;;;;;;;88.03;35.67;;;;;;;-141.97;100.00;47895.81;4975010;28;20180;-85
2022/12/06 03:26:15;;;;;;;86.67;34.97;;;;;;;-141.97;100.00;47905.44;4991605;28;20174;-85
2022/12/06 03:28:42;;;;;;;88.70;34.73;;;;;;;-141.97;100.00;47915.03;4990423;28;20326;-85
2022/12/06 03:31:13;;;;;;;86.47;34.30;;;;;;;-141.97;100.00;47903.50;4990656;28;20648;-85
2022/12/06 03:33:50;;;;;;;94.23;35.50;;;;;;;-141.97;100.00;48015.00;4991996;28;20667;-85
2022/12/06 03:36:17;;;;;;;83.60;34.63;;;;;;;-141.97;100.00;47888.13;4992225;28;20250;-85
2022/12/06 03:39:05;;;;;;;78.60;33.40;;;;;;;-141.97;100.00;47888.13;4991766;28;20181;-85
2022/12/06 03:41:38;;;;;;;89.77;35.63;;;;;;;-141.97;100.00;47918.88;4991849;28;20264;-85
2022/12/06 03:44:03;;;;;;;85.13;34.23;;;;;;;-141.97;100.00;47922.72;4992380;28;20644;-85
2022/12/06 03:46:35;;;;;;;89.03;36.80;;;;;;;-141.97;100.00;47828.53;4996174;28;20226;-86
2022/12/06 03:49:07;;;;;;;93.63;38.03;;;;;;;-141.97;100.00;47884.28;4996435;28;20182;-86
2022/12/06 03:51:36;;;;;;;94.70;37.60;;;;;;;-141.97;100.00;47915.03;4996247;28;20241;-86
2022/12/06 03:54:04;;;;;;;97.60;37.97;;;;;;;-141.97;100.00;47903.50;4995893;28;20188;-84
2022/12/06 03:56:31;;;;;;;95.47;38.23;;;;;;;-141.97;100.00;47907.34;4996071;28;20168;-86
2022/12/06 03:58:56;;;;;;;103.03;39.93;;;;;;;-141.97;100.00;47938.09;4995783;28;20201;-85
2022/12/06 04:01:22;;;;;;;96.57;39.57;;;;;;;-141.97;100.00;47722.81;4996119;28;20580;-85
2022/12/06 04:03:48;;;;;;;98.60;38.33;;;;;;;-141.97;100.00;47897.75;4996412;28;20171;-85
2022/12/06 04:06:13;;;;;;;102.77;39.43;;;;;;;-141.97;100.00;47922.72;4997470;28;20164;-86
2022/12/06 04:08:39;;;;;;;95.23;39.27;;;;;;;-141.97;100.00;47878.53;4996193;28;20168;-86
2022/12/06 04:11:04;;;;;;;97.70;39.17;;;;;;;-141.97;100.00;47953.50;4996117;28;20175;-86
2022/12/06 04:13:31;;;;;;;100.73;38.57;;;;;;;-141.97;100.00;47876.59;4979193;28;20176;-86
2022/12/06 04:15:59;;;;;;;96.83;37.97;;;;;;;-141.97;100.00;47911.19;4999444;28;20296;-86
2022/12/06 04:18:25;;;;;;;108.60;39.73;;;;;;;-141.97;100.00;47941.94;4999536;28;20168;-86
2022/12/06 04:23:50;;;;;;;96.97;37.90;;;;;;;-141.97;100.00;47872.75;4999586;28;20280;-86
2022/12/06 04:26:19;;;;;;;99.53;38.30;;;;;;;-141.97;100.00;47959.25;4997155;28;20176;-86
2022/12/06 04:39:42;;;;;;;87.10;35.57;;;;;;;-141.97;100.00;47995.78;4995363;28;20686;-86
2022/12/06 04:44:52;;;;;;;91.80;36.13;;;;;;;-141.97;100.00;47899.66;4995521;28;20639;-86
2022/12/06 04:47:17;;;;;;;97.73;37.43;;;;;;;-141.97;100.00;47886.22;4995118;28;20171;-86
2022/12/06 04:49:43;;;;;;;94.47;36.87;;;;;;;-141.97;100.00;47880.44;4995022;28;20219;-85
2022/12/06 04:52:09;;;;;;;97.50;36.73;;;;;;;-141.97;100.00;47866.97;4994802;28;20191;-86
2022/12/06 04:54:35;;;;;;;104.30;39.37;;;;;;;-141.97;100.00;47920.81;4994840;28;20674;-86
2022/12/06 04:57:01;;;;;;;104.63;40.37;;;;;;;-141.97;100.00;47878.53;4994093;28;20250;-86
2022/12/06 04:59:28;;;;;;;100.73;39.43;;;;;;;-141.97;100.00;47868.91;4994950;28;20202;-89
2022/12/06 05:01:54;;;;;;;124.73;49.17;;;;;;;-141.97;100.00;47876.59;4995149;28;20251;-86
2022/12/06 05:04:20;;;;;;;112.73;43.00;;;;;;;-141.97;100.00;47899.66;4994567;28;20258;-86
2022/12/06 05:06:46;;;;;;;96.10;38.37;;;;;;;-141.97;100.00;47861.22;4994845;28;20178;-86
2022/12/06 05:09:13;;;;;;;105.10;37.87;;;;;;;-141.97;100.00;47751.66;4995574;28;20647;-86
2022/12/06 05:11:39;;;;;;;104.13;39.63;;;;;;;-141.97;100.00;47922.72;4993461;28;20266;-86
2022/12/06 05:14:04;;;;;;;132.33;47.97;;;;;;;-141.97;100.00;47961.19;4994598;28;20271;-86
2022/12/06 05:16:29;;;;;;;137.07;47.63;;;;;;;-141.97;100.00;48030.38;4994433;28;20175;-86
2022/12/06 05:18:55;;;;;;;93.33;35.73;;;;;;;-141.97;100.00;47903.50;4977006;28;20195;-85
2022/12/06 05:21:23;;;;;;;94.53;37.43;;;;;;;-141.97;100.00;47938.09;4976826;28;20179;-85
2022/12/06 05:23:51;;;;;;;86.77;34.43;;;;;;;-141.97;100.00;47861.22;5006411;28;20164;-86
2022/12/06 05:26:18;;;;;;;89.70;37.83;;;;;;;-141.97;100.00;47895.81;5016934;28;20171;-87
2022/12/06 05:28:45;;;;;;;258.00;87.27;;;;;;;-141.97;100.00;47840.06;5000535;28;20183;-86
2022/12/06 05:31:10;;;;;;;107.10;40.73;;;;;;;-141.97;100.00;47738.19;4976780;28;20271;-86
2022/12/06 05:33:37;;;;;;;162.57;63.50;;;;;;;-141.97;100.00;47865.06;4992970;28;20263;-86
2022/12/06 05:36:14;;;;;;;75.97;30.77;;;;;;;-141.97;100.00;47930.41;4992775;28;20172;-86
2022/12/06 05:38:39;;;;;;;78.43;32.57;;;;;;;-141.97;100.00;47961.19;4993989;28;20174;-86
2022/12/06 05:41:05;;;;;;;67.63;30.37;;;;;;;-141.97;100.00;47922.72;4994008;28;20622;-87
2022/12/06 05:43:31;;;;;;;66.00;27.67;;;;;;;-141.97;100.00;47886.22;4994320;28;20755;-87
2022/12/06 05:45:56;;;;;;;58.63;26.73;;;;;;;-141.97;100.00;47903.50;4994249;28;20243;-87
2022/12/06 05:48:22;;;;;;;66.60;28.90;;;;;;;-141.97;100.00;47909.28;4993962;28;20182;-86
2022/12/06 05:50:48;;;;;;;60.53;26.50;;;;;;;-141.97;100.00;47930.41;4993999;28;20350;-86
2022/12/06 05:53:14;;;;;;;65.93;29.07;;;;;;;-141.97;100.00;47918.88;4993535;28;20183;-87
2022/12/06 05:55:40;;;;;;;113.57;48.57;;;;;;;-141.97;100.00;47901.59;4994116;28;20190;-86
2022/12/06 05:58:06;;;;;;;112.03;47.13;;;;;;;-141.97;100.00;47897.75;4993834;28;20212;-87
2022/12/06 06:00:32;;;;;;;128.27;51.87;;;;;;;-141.97;100.00;47918.88;4994070;28;20206;-87
2022/12/06 06:02:58;;;;;;;93.03;41.50;;;;;;;-141.97;100.00;47911.19;4994193;28;20182;-87
2022/12/06 06:05:23;;;;;;;120.60;52.67;;;;;;;-141.97;100.00;47991.94;4994283;28;20583;-86
2022/12/06 06:07:49;;;;;;;108.07;48.27;;;;;;;-141.97;100.00;47924.66;4992927;28;20184;-87
2022/12/06 06:10:15;;;;;;;84.73;37.10;;;;;;;-141.97;100.00;47978.47;4993276;28;20168;-86
2022/12/06 06:12:41;;;;;;;75.70;32.47;;;;;;;-141.97;100.00;47724.75;4975626;28;20175;-87
2022/12/06 06:15:07;;;;;;;79.20;31.30;;;;;;;-141.97;100.00;47907.34;4975433;28;20172;-87
2022/12/06 06:17:33;;;;;;;81.57;35.30;;;;;;;-141.97;100.00;47943.88;4993360;28;20186;-88
2022/12/06 06:20:04;;;;;;;94.87;39.00;;;;;;;-141.97;100.00;47901.59;4973509;28;20273;-87
2022/12/06 06:22:29;;;;;;;92.33;38.30;;;;;;;-141.97;100.00;47886.22;4984170;28;20638;-85
2022/12/06 06:24:55;;;;;;;72.33;30.27;;;;;;;-141.97;100.00;47880.44;4993048;28;20164;-85
2022/12/06 06:27:20;;;;;;;62.67;28.63;;;;;;;-141.97;100.00;47911.19;4992617;28;20180;-85
2022/12/06 06:29:45;;;;;;;76.80;30.70;;;;;;;-141.97;100.00;48009.22;4992240;28;20249;-85
2022/12/06 06:32:12;;;;;;;68.70;28.90;;;;;;;-141.97;100.00;47807.41;4990668;28;20259;-85
2022/12/06 06:34:37;;;;;;;64.30;27.00;;;;;;;-141.97;100.00;47888.13;4993037;28;20167;-85
2022/12/06 06:37:03;;;;;;;68.23;27.23;;;;;;;-141.97;100.00;47795.88;4992969;28;20230;-85
2022/12/06 06:39:28;;;;;;;69.40;28.20;;;;;;;-141.97;100.00;47895.81;4992191;28;20701;-85
2022/12/06 06:41:54;;;;;;;71.07;28.03;;;;;;;-141.97;100.00;47988.09;4992236;28;20687;-86
2022/12/06 06:44:19;;;;;;;126.27;55.13;;;;;;;-141.97;100.00;47822.78;4992233;28;20167;-87
2022/12/06 06:46:44;;;;;;;100.00;47.33;;;;;;;-141.97;100.00;47834.31;4992467;28;20191;-86
2022/12/06 06:49:10;;;;;;;93.30;43.67;;;;;;;-141.97;100.00;47980.41;4992333;28;20203;-86
2022/12/06 06:51:36;;;;;;;102.77;45.77;;;;;;;-141.97;100.00;47922.72;4991839;28;20610;-86
2022/12/06 06:54:01;;;;;;;207.57;103.47;;;;;;;-141.97;100.00;47880.44;4993523;28;20199;-86
2022/12/06 06:56:28;;;;;;;351.40;174.03;;;;;;;-141.97;100.00;47976.56;4992903;28;20643;-85
2022/12/06 06:58:54;;;;;;;179.33;81.30;;;;;;;-141.97;100.00;47961.19;4975965;28;20179;-85
2022/12/06 07:01:21;;;;;;;128.57;57.23;;;;;;;-141.97;100.00;47903.50;4993968;28;20172;-87
2022/12/06 07:03:47;;;;;;;131.30;54.43;;;;;;;-141.97;100.00;47768.94;4992735;28;20175;-86
2022/12/06 07:06:13;;;;;;;105.50;47.90;;;;;;;-141.97;100.00;47897.75;4974731;28;20168;-86
2022/12/06 07:08:40;;;;;;;274.93;112.50;;;;;;;-141.97;100.00;47920.81;4992948;28;20174;-85
2022/12/06 07:11:06;;;;;;;281.43;110.97;;;;;;;-141.97;100.00;47855.44;4974732;28;20175;-86
2022/12/06 07:13:32;;;;;;;146.03;59.70;;;;;;;-141.97;100.00;47880.44;4989928;28;20177;-86
2022/12/06 07:15:58;;;;;;;113.07;46.10;;;;;;;-141.97;100.00;47868.91;4997243;28;20180;-86
2022/12/06 07:18:24;;;;;;;111.60;51.07;;;;;;;-141.97;100.00;47813.16;4996478;28;20674;-84
2022/12/06 07:21:02;;;;;;;91.77;37.57;;;;;;;-141.97;100.00;47868.91;4966298;28;20703;-84
2022/12/06 07:23:27;;;;;;;83.73;34.03;;;;;;;-141.97;100.00;47876.59;4992867;28;20669;-85
2022/12/06 07:26:20;;;;;;;103.27;36.70;;;;;;;-141.97;100.00;47895.81;4993363;28;20238;-85
2022/12/06 07:28:47;;;;;;;91.40;35.63;;;;;;;-141.97;100.00;47978.47;4894612;29;20269;-89
2022/12/06 07:31:21;;;;;;;88.73;35.80;;;;;;;-141.97;100.00;47955.41;4912300;29;20193;-85
2022/12/06 07:33:50;;;;;;;92.87;34.73;;;;;;;-141.97;100.00;47907.34;4913133;29;20299;-85
2022/12/06 07:36:16;;;;;;;77.50;31.67;;;;;;;-141.97;100.00;47953.50;4896667;29;20278;-85
2022/12/06 07:38:46;;;;;;;73.20;31.20;;;;;;;-141.97;100.00;47901.59;4912841;29;20591;-85
2022/12/06 07:46:43;;;;;;;81.07;35.37;;;;;;;-141.97;100.00;47895.81;4914153;29;20673;-86
2022/12/06 07:49:09;;;;;;;199.37;71.13;;;;;;;-141.97;100.00;47918.88;4911874;29;20178;-85
2022/12/06 07:51:35;;;;;;;114.40;42.70;;;;;;;-141.97;100.00;47895.81;4913747;29;20245;-86
2022/12/06 07:54:01;;;;;;;85.27;38.43;;;;;;;-141.97;100.00;47822.78;4914698;29;20694;-86
2022/12/06 07:56:26;;;;;;;73.40;32.57;;;;;;;-141.97;100.00;48034.22;4912415;29;20638;-86
2022/12/06 07:58:52;;;;;;;79.30;34.60;;;;;;;-141.97;100.00;47961.19;4912994;29;20213;-85
2022/12/06 08:01:18;;;;;;;78.23;34.77;;;;;;;-141.97;100.00;47818.94;4896767;29;20193;-86
2022/12/06 08:03:43;;;;;;;70.83;32.20;;;;;;;-141.97;100.00;47857.38;4912510;29;20182;-86
2022/12/06 08:06:08;;;;;;;102.27;45.60;;;;;;;-141.97;99.45;47899.66;4976505;28;20187;-86
2022/12/06 08:08:34;;;;;;;93.97;41.90;;;;;;;-141.97;98.71;47861.22;5006839;28;20534;-86
2022/12/06 08:11:01;;;;;;;79.97;33.63;;;;;;;-141.97;97.91;47909.28;5007410;28;20207;-87
2022/12/06 08:13:28;;;;;;;83.60;37.00;;;;;;;-141.97;98.01;47826.63;5014879;28;20848;-86
2022/12/06 08:15:54;;;;;;;77.90;35.20;;;;;;;-141.97;98.42;47924.66;5007518;28;20163;-86
2022/12/06 08:18:19;;;;;;;78.90;33.90;;;;;;;-141.97;97.39;47872.75;4992209;28;20163;-85
2022/12/06 08:20:45;;;;;;;80.93;34.50;;;;;;;-141.97;96.44;47903.50;4981187;28;20694;-85
2022/12/06 08:23:10;;;;;;;83.63;35.73;;;;;;;-141.97;96.40;47822.78;4994245;28;20164;-85
2022/12/06 08:25:36;;;;;;;70.20;32.50;;;;;;;-141.97;95.95;48016.94;4991565;28;20167;-85
2022/12/06 08:28:02;;;;;;;125.90;56.40;;;;;;;-141.97;95.55;47840.06;5007774;28;20175;-85
2022/12/06 08:30:27;;;;;;;96.47;42.00;;;;;;;-141.97;97.53;47907.34;4982562;28;20190;-85
2022/12/06 08:32:53;;;;;;;92.30;39.47;;;;;;;-141.97;97.54;47803.56;4994215;28;20171;-85
2022/12/06 08:35:18;;;;;;;87.80;35.23;;;;;;;-141.97;97.30;47915.03;4994611;28;20172;-85
2022/12/06 08:37:43;;;;;;;86.70;38.57;;;;;;;-141.97;95.56;47855.44;4995475;28;20552;-86
2022/12/06 08:40:09;;;;;;;91.70;39.87;;;;;;;-141.97;94.85;47970.78;4995076;28;20194;-86
2022/12/06 08:42:34;;;;;;;76.73;36.23;;;;;;;-141.97;94.13;47876.59;4994718;28;20171;-86
2022/12/06 08:45:00;;;;;;;69.57;30.77;;;;;;;-141.97;93.52;47722.81;4994883;28;20171;-85
2022/12/06 08:47:25;;;;;;;56.73;26.50;;;;;;;-141.97;90.39;47905.44;4995151;28;20164;-85
2022/12/06 08:49:51;;;;;;;63.00;28.03;;;;;;;-141.97;90.08;47799.72;4993893;28;20234;-85
2022/12/06 08:52:16;;;;;;;63.53;27.63;;;;;;;-141.97;90.42;47895.81;4995086;28;20250;-86
2022/12/06 08:54:42;;;;;;;59.90;26.30;;;;;;;-141.97;90.30;48011.16;4998975;28;20171;-85
2022/12/06 08:57:07;;;;;;;68.47;29.33;;;;;;;-141.97;89.75;47926.56;4984005;28;20171;-86
2022/12/06 08:59:33;;;;;;;62.40;26.80;;;;;;;-141.97;89.26;47868.91;4999069;28;20611;-86
2022/12/06 09:01:58;;;;;;;72.73;32.90;;;;;;;-141.97;89.99;47845.84;4999212;28;20171;-86
2022/12/06 09:04:24;;;;;;;63.00;28.73;;;;;;;-141.97;90.57;48009.22;4998917;28;20179;-85
2022/12/06 09:06:49;;;;;;;71.70;31.10;;;;;;;-141.97;90.21;47824.69;4995316;28;20607;-86
2022/12/06 09:09:17;;;;;;;80.20;34.73;;;;;;;-141.97;89.65;47857.38;4994713;28;20188;-85
2022/12/06 09:11:44;;;;;;;70.97;31.93;;;;;;;-141.97;89.17;47872.75;4994877;28;20172;-86
2022/12/06 09:14:13;;;;;;;64.33;30.10;;;;;;;-141.97;88.80;47972.72;4994545;28;20163;-86
2022/12/06 09:16:42;;;;;;;77.37;33.33;;;;;;;-141.97;89.14;47901.59;4994505;28;20171;-86
2022/12/06 09:19:09;;;;;;;67.47;30.17;;;;;;;-141.97;89.21;47928.50;4994260;28;20748;-85
2022/12/06 09:21:38;;;;;;;62.20;26.43;;;;;;;-141.97;89.15;47838.16;4983746;28;20338;-86
2022/12/06 09:24:05;;;;;;;55.13;25.20;;;;;;;-141.97;89.84;47880.44;4994264;28;20165;-86
2022/12/06 09:26:30;;;;;;;131.83;59.90;;;;;;;-141.97;90.32;47907.34;4994017;28;20178;-85
2022/12/06 09:28:57;;;;;;;81.60;36.43;;;;;;;-141.97;90.65;47865.06;4993817;28;20254;-85
2022/12/06 09:31:23;;;;;;;67.87;30.23;;;;;;;-141.97;90.62;47903.50;4993341;28;20226;-85
2022/12/06 09:33:49;;;;;;;75.03;34.43;;;;;;;-141.97;90.43;47965.03;4993712;28;20231;-85
2022/12/06 09:36:21;;;;;;;49.00;22.73;;;;;;;-141.97;89.29;47772.78;4994092;28;20171;-85
2022/12/06 09:38:58;;;;;;;53.27;24.80;;;;;;;-141.97;89.00;47953.50;4976464;28;20237;-85
2022/12/06 09:41:27;;;;;;;48.87;22.37;;;;;;;-141.97;88.16;47915.03;4993088;28;20178;-85
2022/12/06 09:44:16;;;;;;;49.87;21.77;;;;;;;-141.97;87.49;47853.53;4993526;28;20171;-86
2022/12/06 09:47:17;;;;;;;51.20;24.03;;;;;;;-141.97;88.05;47861.22;4996870;28;20173;-85
2022/12/06 09:49:58;;;;;;;52.67;23.10;;;;;;;-141.97;87.65;47870.81;4984983;28;20703;-86
2022/12/06 09:52:44;;;;;;;54.30;25.70;;;;;;;-141.97;87.99;47938.09;4981932;28;20218;-85
2022/12/06 09:55:44;;;;;;;62.13;27.57;;;;;;;-141.97;87.90;47963.09;4994104;28;20179;-85
2022/12/06 09:58:33;;;;;;;58.50;27.90;;;;;;;-141.97;87.10;47876.59;4994203;28;20250;-85
2022/12/06 10:01:13;;;;;;;57.63;27.10;;;;;;;-141.97;86.23;47965.03;4993632;28;20582;-85
2022/12/06 10:03:45;;;;;;;52.23;26.00;;;;;;;-141.97;86.32;47884.28;4976390;28;20297;-85
2022/12/06 10:06:16;;;;;;;48.53;22.83;;;;;;;-141.97;85.65;47918.88;4994121;28;20168;-85
2022/12/06 10:09:13;;;;;;;56.60;25.47;;;;;;;-141.97;85.20;47984.25;4993589;28;20172;-85
2022/12/06 10:12:12;;;;;;;56.93;25.90;;;;;;;-141.97;85.07;47857.38;4972101;28;20175;-85
2022/12/06 10:14:44;;;;;;;53.53;25.37;;;;;;;-141.97;85.33;47899.66;4973935;28;20637;-85
2022/12/06 10:17:34;;;;;;;47.73;22.00;;;;;;;-141.97;85.07;47884.28;4973460;28;20649;-85
2022/12/06 10:20:21;;;;;;;45.60;21.27;;;;;;;-141.97;83.90;47901.59;4976224;28;20585;-86
2022/12/06 10:23:08;;;;;;;49.80;23.63;;;;;;;-141.97;83.82;47899.66;4982420;28;20247;-85
2022/12/06 10:25:58;;;;;;;50.57;23.37;;;;;;;-141.97;83.50;47866.97;4975048;28;20227;-85
2022/12/06 10:28:30;;;;;;;51.37;23.33;;;;;;;-141.97;83.47;47868.91;4975743;28;20714;-86
2022/12/06 10:31:05;;;;;;;51.47;24.67;;;;;;;-141.97;83.07;47855.44;4992370;28;20656;-85
2022/12/06 10:34:13;;;;;;;50.83;25.23;;;;;;;-141.97;83.00;47880.44;4992685;28;20164;-85
2022/12/06 10:36:57;;;;;;;57.27;25.57;;;;;;;-141.97;83.00;47868.91;4913936;29;20599;-85
2022/12/06 10:39:30;;;;;;;56.87;24.27;;;;;;;-141.97;82.76;47872.75;4913903;29;20341;-85
2022/12/06 10:42:14;;;;;;;45.93;23.33;;;;;;;-141.97;83.08;47893.91;4913471;29;20178;-85
2022/12/06 10:44:45;;;;;;;54.03;25.60;;;;;;;-141.97;82.21;47938.09;4913478;29;20182;-86
2022/12/06 10:47:18;;;;;;;50.40;24.20;;;;;;;-141.97;82.21;47832.38;4897104;29;20244;-85
2022/12/06 10:50:17;;;;;;;55.43;25.00;;;;;;;-141.97;83.60;47849.69;4913276;29;20645;-86
2022/12/06 10:52:44;;;;;;;55.40;25.27;;;;;;;-141.97;83.24;47859.28;4897546;29;20198;-86
2022/12/06 10:55:10;;;;;;;52.97;24.80;;;;;;;-141.97;84.91;47849.69;4912634;29;20188;-86
2022/12/06 10:57:44;;;;;;;53.07;24.07;;;;;;;-141.97;84.52;47872.75;4913633;29;20174;-85
2022/12/06 11:00:16;;;;;;;48.13;23.43;;;;;;;-141.97;85.03;47865.06;4913010;29;20788;-86
2022/12/06 11:03:06;;;;;;;46.33;21.90;;;;;;;-141.97;83.62;47851.59;4912868;29;20210;-86
2022/12/06 11:05:47;;;;;;;54.67;24.23;;;;;;;-141.97;84.87;47824.69;4913284;29;20198;-86
2022/12/06 11:08:18;;;;;;;50.93;24.43;;;;;;;-141.97;84.64;47842.00;4913084;29;20670;-86
2022/12/06 11:10:46;;;;;;;54.93;24.00;;;;;;;-141.97;84.89;47832.38;4912600;29;20265;-86
2022/12/06 11:13:31;;;;;;;54.33;24.90;;;;;;;-141.97;85.45;47868.91;4948747;28;20191;-85
2022/12/06 11:16:14;;;;;;;50.33;23.70;;;;;;;-141.97;86.00;47845.84;4992135;28;20562;-86
2022/12/06 11:18:40;;;;;;;50.00;23.07;;;;;;;-141.97;86.05;47857.38;4974755;28;20616;-86
2022/12/06 11:21:13;;;;;;;47.03;21.80;;;;;;;-141.97;85.68;47845.84;4985518;28;20241;-87
2022/12/06 11:23:58;;;;;;;44.93;21.77;;;;;;;-141.97;85.21;47916.97;4991946;28;20281;-84
2022/12/06 11:26:43;;;;;;;58.77;25.87;;;;;;;-141.97;85.63;47828.53;4971981;28;20786;-88
2022/12/06 11:29:11;;;;;;;52.87;22.87;;;;;;;-141.97;84.57;47853.53;4973502;28;20196;-85